createdAt,value
2023-01-15T00:00:56.495Z,0.00
2023-01-15T00:01:56.684Z,0.00
2023-01-15T00:02:56.912Z,0.00
2023-01-15T00:03:57.154Z,0.00
2023-01-15T00:04:57.174Z,0.00
2023-01-15T00:05:57.329Z,0.00
2023-01-15T00:06:57.512Z,0.00
2023-01-15T00:07:57.656Z,0.00
2023-01-15T00:08:57.846Z,0.00
2023-01-15T00:09:58.023Z,0.00
2023-01-15T00:10:58.198Z,0.00
2023-01-15T00:11:58.426Z,0.00
2023-01-15T00:12:58.569Z,0.00
2023-01-15T00:13:58.768Z,0.00
2023-01-15T00:14:58.918Z,0.00
2023-01-15T00:15:59.101Z,0.00
2023-01-15T00:16:59.276Z,0.00
2023-01-15T00:17:59.467Z,0.00
2023-01-15T00:18:59.601Z,0.00
2023-01-15T00:19:59.779Z,0.00
2023-01-15T00:20:59.976Z,0.00
2023-01-15T00:22:00.156Z,0.00
2023-01-15T00:23:00.342Z,0.00
2023-01-15T00:24:00.481Z,0.00
2023-01-15T00:25:00.667Z,0.00
2023-01-15T00:26:00.840Z,0.00
2023-01-15T00:27:01.013Z,0.00
2023-01-15T00:28:01.927Z,0.00
2023-01-15T00:29:01.361Z,0.00
2023-01-15T00:30:01.618Z,0.00
2023-01-15T00:31:01.735Z,0.00
2023-01-15T00:32:01.897Z,0.00
2023-01-15T00:33:02.055Z,0.00
2023-01-15T00:34:02.246Z,0.00
2023-01-15T00:35:02.423Z,0.00
2023-01-15T00:36:02.566Z,0.00
2023-01-15T00:37:02.752Z,0.00
2023-01-15T00:38:02.926Z,0.00
2023-01-15T00:39:03.072Z,0.00
2023-01-15T00:40:03.251Z,0.00
2023-01-15T00:41:03.441Z,0.00
2023-01-15T00:42:03.595Z,0.00
2023-01-15T00:43:03.816Z,0.00
2023-01-15T00:44:03.965Z,0.00
2023-01-15T00:45:04.130Z,0.00
2023-01-15T00:46:04.292Z,0.00
2023-01-15T00:47:04.468Z,0.00
2023-01-15T00:48:04.671Z,0.00
2023-01-15T00:49:04.822Z,0.00
2023-01-15T00:50:04.991Z,0.00
2023-01-15T00:51:05.177Z,0.00
2023-01-15T00:52:05.358Z,0.00
2023-01-15T00:53:05.554Z,0.00
2023-01-15T00:54:05.692Z,0.00
2023-01-15T00:55:05.876Z,0.00
2023-01-15T00:56:06.049Z,0.00
2023-01-15T00:57:06.228Z,0.00
2023-01-15T00:58:06.493Z,0.00
2023-01-15T00:59:06.581Z,0.00
2023-01-15T01:00:06.758Z,0.00
2023-01-15T01:01:07.020Z,0.00
2023-01-15T01:02:07.239Z,0.00
2023-01-15T01:03:07.310Z,0.00
2023-01-15T01:04:07.511Z,0.00
2023-01-15T01:05:07.655Z,0.00
2023-01-15T01:06:07.829Z,0.00
2023-01-15T01:07:08.003Z,0.00
2023-01-15T01:08:08.198Z,0.00
2023-01-15T01:09:08.343Z,0.00
2023-01-15T01:10:08.507Z,0.00
2023-01-15T01:11:08.693Z,0.00
2023-01-15T01:12:08.936Z,0.00
2023-01-15T01:13:09.087Z,0.00
2023-01-15T01:14:09.203Z,0.00
2023-01-15T01:15:09.395Z,0.00
2023-01-15T01:16:09.606Z,0.00
2023-01-15T01:17:09.795Z,0.00
2023-01-15T01:18:09.945Z,0.00
2023-01-15T01:19:10.098Z,0.00
2023-01-15T01:20:10.281Z,0.00
2023-01-15T01:21:10.457Z,0.00
2023-01-15T01:22:10.649Z,0.00
2023-01-15T01:23:10.849Z,0.00
2023-01-15T01:24:10.989Z,0.00
2023-01-15T01:25:11.208Z,0.00
2023-01-15T01:26:11.321Z,0.00
2023-01-15T01:27:11.492Z,0.00
2023-01-15T01:28:11.614Z,0.00
2023-01-15T01:29:11.796Z,0.00
2023-01-15T01:30:11.974Z,0.00
2023-01-15T01:31:12.227Z,0.00
2023-01-15T01:32:12.326Z,0.00
2023-01-15T01:33:12.510Z,0.00
2023-01-15T01:34:12.690Z,0.00
2023-01-15T01:35:12.867Z,0.00
2023-01-15T01:36:13.060Z,0.00
2023-01-15T01:37:13.227Z,0.00
2023-01-15T01:38:13.388Z,0.00
2023-01-15T01:39:13.588Z,0.00
2023-01-15T01:40:13.747Z,0.00
2023-01-15T01:41:13.938Z,0.00
2023-01-15T01:42:14.099Z,0.00
2023-01-15T01:43:14.288Z,0.00
2023-01-15T01:44:14.431Z,0.00
2023-01-15T01:45:14.631Z,0.00
2023-01-15T01:46:14.820Z,0.00
2023-01-15T01:47:15.007Z,0.00
2023-01-15T01:48:15.169Z,0.00
2023-01-15T01:49:15.400Z,0.00
2023-01-15T01:50:15.552Z,0.00
2023-01-15T01:51:15.750Z,0.00
2023-01-15T01:52:15.911Z,0.00
2023-01-15T01:53:16.071Z,0.00
2023-01-15T01:54:16.260Z,0.00
2023-01-15T01:55:16.439Z,0.00
2023-01-15T01:56:16.582Z,0.00
2023-01-15T01:57:16.755Z,0.00
2023-01-15T01:58:16.929Z,0.00
2023-01-15T01:59:17.112Z,0.00
2023-01-15T02:00:17.301Z,0.00
2023-01-15T02:01:17.556Z,0.00
2023-01-15T02:02:17.680Z,0.00
2023-01-15T02:03:17.853Z,0.00
2023-01-15T02:04:17.997Z,0.00
2023-01-15T02:05:20.561Z,0.00
2023-01-15T02:06:18.354Z,0.00
2023-01-15T02:07:18.522Z,0.00
2023-01-15T02:08:18.694Z,0.00
2023-01-15T02:09:18.886Z,0.00
2023-01-15T02:10:19.089Z,0.00
2023-01-15T02:11:19.230Z,0.00
2023-01-15T02:12:19.431Z,0.00
2023-01-15T02:13:19.595Z,0.00
2023-01-15T02:14:19.773Z,0.00
2023-01-15T02:15:19.977Z,0.00
2023-01-15T02:16:20.128Z,0.00
2023-01-15T02:17:20.302Z,0.00
2023-01-15T02:18:20.484Z,0.00
2023-01-15T02:19:20.646Z,0.00
2023-01-15T02:20:20.861Z,0.00
2023-01-15T02:21:21.004Z,0.00
2023-01-15T02:22:21.182Z,0.00
2023-01-15T02:23:21.352Z,0.00
2023-01-15T02:24:21.530Z,0.00
2023-01-15T02:25:21.726Z,0.00
2023-01-15T02:26:21.867Z,0.00
2023-01-15T02:27:22.549Z,0.00
2023-01-15T02:28:22.200Z,0.00
2023-01-15T02:29:22.389Z,0.00
2023-01-15T02:30:22.597Z,0.00
2023-01-15T02:31:22.800Z,0.00
2023-01-15T02:32:22.910Z,0.00
2023-01-15T02:33:23.091Z,0.00
2023-01-15T02:34:23.296Z,0.00
2023-01-15T02:35:23.488Z,0.00
2023-01-15T02:36:23.641Z,0.00
2023-01-15T02:37:23.861Z,0.00
2023-01-15T02:38:23.976Z,0.00
2023-01-15T02:39:24.174Z,0.00
2023-01-15T02:40:24.382Z,0.00
2023-01-15T02:41:24.517Z,0.00
2023-01-15T02:42:24.694Z,0.00
2023-01-15T02:43:24.888Z,0.00
2023-01-15T02:44:25.057Z,0.00
2023-01-15T02:45:25.399Z,0.00
2023-01-15T02:46:25.408Z,0.00
2023-01-15T02:47:25.585Z,0.00
2023-01-15T02:48:25.773Z,0.00
2023-01-15T02:49:25.947Z,0.00
2023-01-15T02:50:26.146Z,0.00
2023-01-15T02:51:26.309Z,0.00
2023-01-15T02:52:26.492Z,0.00
2023-01-15T02:53:26.686Z,0.00
2023-01-15T02:54:26.860Z,0.00
2023-01-15T02:55:27.031Z,0.00
2023-01-15T02:56:27.207Z,0.00
2023-01-15T02:57:27.408Z,0.00
2023-01-15T02:58:27.574Z,0.00
2023-01-15T02:59:27.820Z,0.00
2023-01-15T03:00:27.920Z,0.00
2023-01-15T03:01:28.250Z,0.00
2023-01-15T03:02:28.338Z,0.00
2023-01-15T03:03:28.427Z,0.00
2023-01-15T03:04:28.600Z,0.00
2023-01-15T03:05:28.801Z,0.00
2023-01-15T03:06:28.967Z,0.00
2023-01-15T03:07:29.169Z,0.00
2023-01-15T03:08:29.332Z,0.00
2023-01-15T03:09:29.469Z,0.00
2023-01-15T03:10:29.636Z,0.00
2023-01-15T03:11:29.810Z,0.00
2023-01-15T03:12:29.990Z,0.00
2023-01-15T03:13:30.193Z,0.00
2023-01-15T03:14:30.331Z,0.00
2023-01-15T03:15:30.522Z,0.00
2023-01-15T03:16:30.738Z,0.00
2023-01-15T03:17:30.879Z,0.00
2023-01-15T03:18:31.062Z,0.00
2023-01-15T03:19:31.249Z,0.00
2023-01-15T03:20:31.408Z,0.00
2023-01-15T03:21:31.654Z,0.00
2023-01-15T03:22:31.761Z,0.00
2023-01-15T03:23:31.939Z,0.00
2023-01-15T03:24:32.121Z,0.00
2023-01-15T03:25:32.305Z,0.00
2023-01-15T03:26:32.460Z,0.00
2023-01-15T03:27:32.638Z,0.00
2023-01-15T03:28:32.820Z,0.00
2023-01-15T03:29:32.996Z,0.00
2023-01-15T03:30:33.190Z,0.00
2023-01-15T03:31:33.370Z,0.00
2023-01-15T03:32:33.495Z,0.00
2023-01-15T03:33:33.676Z,0.00
2023-01-15T03:34:33.849Z,0.00
2023-01-15T03:35:34.036Z,0.00
2023-01-15T03:36:34.247Z,0.00
2023-01-15T03:37:34.377Z,0.00
2023-01-15T03:38:34.551Z,0.00
2023-01-15T03:39:34.725Z,0.00
2023-01-15T03:40:34.918Z,0.00
2023-01-15T03:41:35.088Z,0.00
2023-01-15T03:42:35.240Z,0.00
2023-01-15T03:43:35.383Z,0.00
2023-01-15T03:44:35.553Z,0.00
2023-01-15T03:45:35.742Z,0.00
2023-01-15T03:46:35.937Z,0.00
2023-01-15T03:47:36.078Z,0.00
2023-01-15T03:48:36.249Z,0.00
2023-01-15T03:49:36.450Z,0.00
2023-01-15T03:50:36.619Z,0.00
2023-01-15T03:51:36.788Z,0.00
2023-01-15T03:52:36.962Z,0.00
2023-01-15T03:53:37.229Z,0.00
2023-01-15T03:54:37.323Z,0.00
2023-01-15T03:55:37.495Z,0.00
2023-01-15T03:56:37.689Z,0.00
2023-01-15T03:57:37.881Z,0.00
2023-01-15T03:58:37.999Z,0.00
2023-01-15T03:59:38.172Z,0.00
2023-01-15T04:00:38.368Z,0.00
2023-01-15T04:01:38.740Z,0.00
2023-01-15T04:02:38.740Z,0.00
2023-01-15T04:03:38.886Z,0.00
2023-01-15T04:04:39.055Z,0.00
2023-01-15T04:05:39.245Z,0.00
2023-01-15T04:06:39.418Z,0.00
2023-01-15T04:07:39.833Z,0.00
2023-01-15T04:08:39.783Z,0.00
2023-01-15T04:09:39.960Z,0.00
2023-01-15T04:10:40.158Z,0.00
2023-01-15T04:11:40.314Z,0.00
2023-01-15T04:12:40.508Z,0.00
2023-01-15T04:13:40.656Z,0.00
2023-01-15T04:14:40.832Z,0.00
2023-01-15T04:15:41.059Z,0.00
2023-01-15T04:16:41.175Z,0.00
2023-01-15T04:17:41.385Z,0.00
2023-01-15T04:18:41.517Z,0.00
2023-01-15T04:19:41.691Z,0.00
2023-01-15T04:20:41.864Z,0.00
2023-01-15T04:21:42.071Z,0.00
2023-01-15T04:22:42.228Z,0.00
2023-01-15T04:23:42.366Z,0.00
2023-01-15T04:24:42.530Z,0.00
2023-01-15T04:25:42.722Z,0.00
2023-01-15T04:26:42.894Z,0.00
2023-01-15T04:27:43.102Z,0.00
2023-01-15T04:28:43.278Z,0.00
2023-01-15T04:29:43.426Z,0.00
2023-01-15T04:30:43.773Z,0.00
2023-01-15T04:31:43.789Z,0.00
2023-01-15T04:32:43.983Z,0.00
2023-01-15T04:33:44.123Z,0.00
2023-01-15T04:34:44.295Z,0.00
2023-01-15T04:35:44.494Z,0.00
2023-01-15T04:36:44.622Z,0.00
2023-01-15T04:37:44.827Z,0.00
2023-01-15T04:38:44.973Z,0.00
2023-01-15T04:39:45.145Z,0.00
2023-01-15T04:40:45.318Z,0.00
2023-01-15T04:41:45.496Z,0.00
2023-01-15T04:42:45.713Z,0.00
2023-01-15T04:43:45.834Z,0.00
2023-01-15T04:44:46.015Z,0.00
2023-01-15T04:45:46.190Z,0.00
2023-01-15T04:46:46.361Z,0.00
2023-01-15T04:47:46.552Z,0.00
2023-01-15T04:48:46.725Z,0.00
2023-01-15T04:49:46.895Z,0.00
2023-01-15T04:50:47.075Z,0.00
2023-01-15T04:51:47.268Z,0.00
2023-01-15T04:52:47.495Z,0.00
2023-01-15T04:53:47.624Z,0.00
2023-01-15T04:54:47.805Z,0.00
2023-01-15T04:55:47.977Z,0.00
2023-01-15T04:56:48.182Z,0.00
2023-01-15T04:57:48.348Z,0.00
2023-01-15T04:58:48.525Z,0.00
2023-01-15T04:59:48.706Z,0.00
2023-01-15T05:00:48.928Z,0.00
2023-01-15T05:02:02.453Z,0.00
2023-01-15T05:02:50.246Z,0.00
2023-01-15T05:03:49.389Z,0.00
2023-01-15T05:04:49.645Z,0.00
2023-01-15T05:05:49.754Z,0.00
2023-01-15T05:06:49.944Z,0.00
2023-01-15T05:07:50.120Z,0.00
2023-01-15T05:08:50.294Z,0.00
2023-01-15T05:09:50.471Z,0.00
2023-01-15T05:10:50.673Z,0.00
2023-01-15T05:11:50.809Z,0.00
2023-01-15T05:12:50.993Z,0.00
2023-01-15T05:13:51.165Z,0.00
2023-01-15T05:14:51.347Z,0.00
2023-01-15T05:15:51.587Z,0.00
2023-01-15T05:16:51.685Z,0.00
2023-01-15T05:17:51.874Z,0.00
2023-01-15T05:18:52.067Z,0.00
2023-01-15T05:19:52.215Z,0.00
2023-01-15T05:20:52.405Z,0.00
2023-01-15T05:21:52.547Z,0.00
2023-01-15T05:22:52.717Z,0.00
2023-01-15T05:23:52.907Z,0.00
2023-01-15T05:24:53.088Z,0.00
2023-01-15T05:25:53.232Z,0.00
2023-01-15T05:26:53.415Z,0.00
2023-01-15T05:27:53.585Z,0.00
2023-01-15T05:28:53.759Z,0.00
2023-01-15T05:29:53.958Z,0.00
2023-01-15T05:30:54.161Z,0.00
2023-01-15T05:31:54.282Z,0.00
2023-01-15T05:32:54.469Z,0.00
2023-01-15T05:33:54.673Z,0.00
2023-01-15T05:34:54.837Z,0.00
2023-01-15T05:35:55.019Z,0.00
2023-01-15T05:36:55.184Z,0.00
2023-01-15T05:37:55.343Z,0.00
2023-01-15T05:38:55.520Z,0.00
2023-01-15T05:39:55.741Z,0.00
2023-01-15T05:40:55.895Z,0.00
2023-01-15T05:41:56.083Z,0.00
2023-01-15T05:42:56.255Z,0.00
2023-01-15T05:43:56.432Z,0.00
2023-01-15T05:44:56.632Z,0.00
2023-01-15T05:45:56.852Z,0.00
2023-01-15T05:46:56.970Z,0.00
2023-01-15T05:47:57.129Z,0.00
2023-01-15T05:48:57.315Z,0.00
2023-01-15T05:49:57.530Z,0.00
2023-01-15T05:50:57.662Z,0.00
2023-01-15T05:51:57.846Z,0.00
2023-01-15T05:52:58.032Z,0.00
2023-01-15T05:53:58.200Z,0.00
2023-01-15T05:54:58.357Z,0.00
2023-01-15T05:55:58.521Z,0.00
2023-01-15T05:56:58.708Z,0.00
2023-01-15T05:57:58.905Z,0.00
2023-01-15T05:58:59.058Z,0.00
2023-01-15T05:59:59.256Z,0.00
2023-01-15T06:00:59.460Z,0.00
2023-01-15T06:01:59.579Z,0.00
2023-01-15T06:02:59.830Z,0.00
2023-01-15T06:03:59.962Z,0.00
2023-01-15T06:05:00.098Z,0.00
2023-01-15T06:06:00.288Z,0.00
2023-01-15T06:07:00.452Z,0.00
2023-01-15T06:08:01.516Z,0.00
2023-01-15T06:09:00.815Z,0.00
2023-01-15T06:10:00.942Z,0.00
2023-01-15T06:11:01.125Z,0.00
2023-01-15T06:12:01.293Z,0.00
2023-01-15T06:13:01.530Z,0.00
2023-01-15T06:14:01.664Z,0.00
2023-01-15T06:15:01.821Z,0.00
2023-01-15T06:16:02.022Z,0.00
2023-01-15T06:17:02.194Z,0.00
2023-01-15T06:18:02.377Z,0.00
2023-01-15T06:19:02.555Z,0.00
2023-01-15T06:20:02.748Z,0.00
2023-01-15T06:21:02.885Z,0.00
2023-01-15T06:22:03.076Z,0.00
2023-01-15T06:23:03.246Z,0.00
2023-01-15T06:24:03.428Z,0.00
2023-01-15T06:25:03.619Z,0.00
2023-01-15T06:26:03.776Z,0.00
2023-01-15T06:27:03.983Z,0.00
2023-01-15T06:28:04.163Z,0.00
2023-01-15T06:29:04.333Z,0.00
2023-01-15T06:30:04.503Z,0.00
2023-01-15T06:31:04.752Z,0.00
2023-01-15T06:32:04.883Z,0.00
2023-01-15T06:33:05.032Z,0.00
2023-01-15T06:34:05.226Z,0.00
2023-01-15T06:35:05.389Z,0.00
2023-01-15T06:36:05.563Z,0.00
2023-01-15T06:37:05.753Z,0.00
2023-01-15T06:38:05.914Z,0.00
2023-01-15T06:39:06.103Z,0.00
2023-01-15T06:40:06.284Z,0.00
2023-01-15T06:41:06.475Z,0.00
2023-01-15T06:42:06.636Z,0.00
2023-01-15T06:43:06.787Z,0.00
2023-01-15T06:44:06.965Z,0.00
2023-01-15T06:45:07.107Z,0.00
2023-01-15T06:46:07.308Z,0.00
2023-01-15T06:47:07.446Z,0.00
2023-01-15T06:48:07.643Z,0.00
2023-01-15T06:49:07.807Z,0.00
2023-01-15T06:50:07.983Z,0.00
2023-01-15T06:51:08.179Z,0.00
2023-01-15T06:52:08.313Z,0.00
2023-01-15T06:53:08.508Z,0.00
2023-01-15T06:54:08.669Z,0.00
2023-01-15T06:55:08.851Z,0.00
2023-01-15T06:56:09.052Z,0.00
2023-01-15T06:57:09.200Z,0.00
2023-01-15T06:58:09.423Z,0.00
2023-01-15T06:59:10.843Z,0.00
2023-01-15T07:00:09.730Z,0.00
2023-01-15T07:01:10.006Z,0.00
2023-01-15T07:02:10.113Z,0.00
2023-01-15T07:03:10.259Z,0.00
2023-01-15T07:04:10.429Z,0.00
2023-01-15T07:05:10.585Z,0.00
2023-01-15T07:06:10.780Z,0.00
2023-01-15T07:07:10.915Z,0.00
2023-01-15T07:08:11.110Z,0.00
2023-01-15T07:09:11.283Z,0.00
2023-01-15T07:10:11.471Z,0.00
2023-01-15T07:11:11.705Z,0.00
2023-01-15T07:12:11.790Z,0.00
2023-01-15T07:13:11.977Z,0.00
2023-01-15T07:14:12.157Z,0.00
2023-01-15T07:15:12.329Z,0.00
2023-01-15T07:16:12.876Z,0.00
2023-01-15T07:17:12.673Z,0.00
2023-01-15T07:18:12.862Z,0.00
2023-01-15T07:19:13.210Z,0.00
2023-01-15T07:20:13.214Z,0.00
2023-01-15T07:21:13.391Z,0.00
2023-01-15T07:22:13.566Z,0.00
2023-01-15T07:23:14.954Z,0.00
2023-01-15T07:24:13.972Z,0.00
2023-01-15T07:25:14.089Z,0.00
2023-01-15T07:26:14.280Z,0.00
2023-01-15T07:27:14.470Z,0.00
2023-01-15T07:28:14.630Z,0.00
2023-01-15T07:29:14.835Z,0.00
2023-01-15T07:30:14.974Z,0.00
2023-01-15T07:31:15.181Z,0.00
2023-01-15T07:32:15.339Z,0.00
2023-01-15T07:33:15.498Z,0.00
2023-01-15T07:34:15.661Z,0.00
2023-01-15T07:35:15.833Z,0.00
2023-01-15T07:36:15.973Z,0.00
2023-01-15T07:37:16.191Z,0.00
2023-01-15T07:38:16.318Z,0.00
2023-01-15T07:39:16.489Z,0.00
2023-01-15T07:40:16.657Z,0.00
2023-01-15T07:41:16.821Z,0.00
2023-01-15T07:42:16.985Z,0.00
2023-01-15T07:43:17.146Z,0.00
2023-01-15T07:44:17.324Z,0.00
2023-01-15T07:45:17.511Z,0.00
2023-01-15T07:46:17.667Z,0.00
2023-01-15T07:47:17.875Z,0.00
2023-01-15T07:48:18.012Z,0.00
2023-01-15T07:49:18.183Z,0.00
2023-01-15T07:50:18.349Z,0.00
2023-01-15T07:51:18.498Z,0.00
2023-01-15T07:52:18.675Z,0.00
2023-01-15T07:53:18.824Z,0.00
2023-01-15T07:54:19.026Z,0.00
2023-01-15T07:55:19.195Z,0.00
2023-01-15T07:56:19.356Z,0.00
2023-01-15T07:57:19.568Z,0.00
2023-01-15T07:58:19.736Z,0.00
2023-01-15T07:59:19.936Z,0.00
2023-01-15T08:00:20.094Z,0.00
2023-01-15T08:01:20.382Z,0.00
2023-01-15T08:02:20.474Z,0.00
2023-01-15T08:03:20.626Z,0.00
2023-01-15T08:04:20.810Z,0.00
2023-01-15T08:05:20.984Z,0.00
2023-01-15T08:06:21.126Z,0.00
2023-01-15T08:07:21.308Z,0.00
2023-01-15T08:08:21.475Z,0.00
2023-01-15T08:09:21.666Z,0.00
2023-01-15T08:10:21.824Z,0.00
2023-01-15T08:11:21.978Z,0.00
2023-01-15T08:12:22.259Z,0.00
2023-01-15T08:13:22.361Z,0.00
2023-01-15T08:14:22.509Z,0.00
2023-01-15T08:15:22.679Z,0.00
2023-01-15T08:16:22.859Z,0.00
2023-01-15T08:17:23.019Z,0.00
2023-01-15T08:18:23.172Z,0.00
2023-01-15T08:19:23.378Z,0.00
2023-01-15T08:20:23.571Z,0.00
2023-01-15T08:21:23.722Z,0.00
2023-01-15T08:22:23.868Z,0.00
2023-01-15T08:23:24.065Z,0.00
2023-01-15T08:24:24.240Z,0.00
2023-01-15T08:25:24.437Z,0.00
2023-01-15T08:26:24.551Z,0.00
2023-01-15T08:27:24.750Z,0.00
2023-01-15T08:28:24.909Z,0.00
2023-01-15T08:29:25.081Z,0.00
2023-01-15T08:30:25.294Z,0.00
2023-01-15T08:31:25.518Z,0.00
2023-01-15T08:32:25.591Z,0.00
2023-01-15T08:33:25.735Z,5.62
2023-01-15T08:34:25.903Z,5.62
2023-01-15T08:35:26.109Z,5.62
2023-01-15T08:36:26.244Z,5.62
2023-01-15T08:37:26.429Z,5.62
2023-01-15T08:38:26.611Z,5.62
2023-01-15T08:39:26.774Z,5.62
2023-01-15T08:40:26.933Z,5.62
2023-01-15T08:41:27.105Z,5.62
2023-01-15T08:42:27.285Z,5.62
2023-01-15T08:43:27.474Z,5.62
2023-01-15T08:44:27.668Z,5.62
2023-01-15T08:45:27.859Z,5.62
2023-01-15T08:46:28.035Z,5.62
2023-01-15T08:47:28.190Z,5.62
2023-01-15T08:48:28.355Z,5.62
2023-01-15T08:49:28.561Z,5.62
2023-01-15T08:50:28.739Z,5.62
2023-01-15T08:51:28.884Z,5.62
2023-01-15T08:52:29.072Z,5.62
2023-01-15T08:53:29.255Z,5.62
2023-01-15T08:54:29.463Z,5.62
2023-01-15T08:55:29.627Z,5.62
2023-01-15T08:56:29.770Z,5.62
2023-01-15T08:57:29.942Z,5.62
2023-01-15T08:58:30.171Z,5.62
2023-01-15T08:59:30.309Z,5.62
2023-01-15T09:00:30.504Z,5.62
2023-01-15T09:01:30.763Z,5.62
2023-01-15T09:02:30.869Z,5.62
2023-01-15T09:03:31.034Z,5.62
2023-01-15T09:04:31.218Z,5.62
2023-01-15T09:05:31.437Z,5.62
2023-01-15T09:06:31.560Z,5.62
2023-01-15T09:07:31.801Z,5.62
2023-01-15T09:08:31.905Z,5.62
2023-01-15T09:09:32.091Z,5.62
2023-01-15T09:10:32.290Z,5.62
2023-01-15T09:11:32.485Z,5.62
2023-01-15T09:12:32.764Z,5.62
2023-01-15T09:13:32.811Z,11.25
2023-01-15T09:14:58.126Z,11.25
2023-01-15T09:15:34.218Z,11.25
2023-01-15T09:16:33.387Z,11.25
2023-01-15T09:17:33.506Z,11.25
2023-01-15T09:18:33.688Z,11.25
2023-01-15T09:19:33.840Z,11.25
2023-01-15T09:20:34.217Z,11.25
2023-01-15T09:21:34.201Z,16.88
2023-01-15T09:22:34.365Z,33.75
2023-01-15T09:23:34.514Z,33.75
2023-01-15T09:24:34.696Z,33.75
2023-01-15T09:25:34.836Z,33.75
2023-01-15T09:26:35.047Z,33.75
2023-01-15T09:27:35.207Z,33.75
2023-01-15T09:28:35.361Z,33.75
2023-01-15T09:29:35.518Z,33.75
2023-01-15T09:30:35.754Z,33.75
2023-01-15T09:31:35.898Z,33.75
2023-01-15T09:32:36.067Z,33.75
2023-01-15T09:33:36.225Z,33.75
2023-01-15T09:34:36.435Z,33.75
2023-01-15T09:35:36.572Z,33.75
2023-01-15T09:36:36.748Z,33.75
2023-01-15T09:37:36.923Z,33.75
2023-01-15T09:38:37.071Z,33.75
2023-01-15T09:39:37.229Z,33.75
2023-01-15T09:40:37.389Z,39.38
2023-01-15T09:41:37.561Z,39.38
2023-01-15T09:42:37.731Z,39.38
2023-01-15T09:43:47.938Z,39.38
2023-01-15T09:44:39.053Z,39.38
2023-01-15T09:45:38.240Z,45.00
2023-01-15T09:46:38.450Z,45.00
2023-01-15T09:47:38.563Z,45.00
2023-01-15T09:48:38.722Z,45.00
2023-01-15T09:49:38.893Z,45.00
2023-01-15T09:50:39.066Z,45.00
2023-01-15T09:51:39.237Z,45.00
2023-01-15T09:52:39.407Z,45.00
2023-01-15T09:53:39.560Z,45.00
2023-01-15T09:54:39.730Z,45.00
2023-01-15T09:55:39.877Z,45.00
2023-01-15T09:56:40.094Z,45.00
2023-01-15T09:57:40.214Z,50.62
2023-01-15T09:58:40.587Z,50.62
2023-01-15T09:59:40.629Z,56.25
2023-01-15T10:00:40.828Z,56.25
2023-01-15T10:01:40.964Z,61.88
2023-01-15T10:02:41.150Z,61.88
2023-01-15T10:03:41.325Z,61.88
2023-01-15T10:04:41.495Z,61.88
2023-01-15T10:05:41.686Z,61.88
2023-01-15T10:06:41.873Z,61.88
2023-01-15T10:07:42.034Z,56.25
2023-01-15T10:08:42.232Z,56.25
2023-01-15T10:09:42.393Z,61.88
2023-01-15T10:10:42.570Z,61.88
2023-01-15T10:11:42.698Z,61.88
2023-01-15T10:12:42.881Z,61.88
2023-01-15T10:13:43.027Z,61.88
2023-01-15T10:14:43.200Z,61.88
2023-01-15T10:15:43.419Z,56.25
2023-01-15T10:16:43.541Z,61.88
2023-01-15T10:17:43.724Z,61.88
2023-01-15T10:18:43.892Z,61.88
2023-01-15T10:19:44.991Z,61.88
2023-01-15T10:20:44.250Z,61.88
2023-01-15T10:21:44.401Z,67.50
2023-01-15T10:22:44.601Z,67.50
2023-01-15T10:23:44.731Z,73.12
2023-01-15T10:24:44.941Z,73.12
2023-01-15T10:25:45.090Z,78.75
2023-01-15T10:26:45.277Z,73.12
2023-01-15T10:27:45.456Z,78.75
2023-01-15T10:28:45.636Z,84.38
2023-01-15T10:29:45.818Z,84.38
2023-01-15T10:30:46.068Z,84.38
2023-01-15T10:31:46.172Z,84.38
2023-01-15T10:33:01.051Z,90.00
2023-01-15T10:33:47.505Z,84.38
2023-01-15T10:34:46.664Z,78.75
2023-01-15T10:35:46.844Z,78.75
2023-01-15T10:36:46.993Z,78.75
2023-01-15T10:37:47.167Z,78.75
2023-01-15T10:38:47.327Z,78.75
2023-01-15T10:39:47.475Z,73.12
2023-01-15T10:40:47.677Z,73.12
2023-01-15T10:41:47.840Z,73.12
2023-01-15T10:42:47.988Z,67.50
2023-01-15T10:43:48.133Z,67.50
2023-01-15T10:44:48.370Z,67.50
2023-01-15T10:45:48.595Z,73.12
2023-01-15T10:46:48.660Z,73.12
2023-01-15T10:47:48.845Z,78.75
2023-01-15T10:48:49.016Z,78.75
2023-01-15T10:49:49.225Z,73.12
2023-01-15T10:50:49.393Z,73.12
2023-01-15T10:51:49.551Z,78.75
2023-01-15T10:52:49.736Z,84.38
2023-01-15T10:53:49.908Z,90.00
2023-01-15T10:54:50.098Z,90.00
2023-01-15T10:55:50.279Z,90.00
2023-01-15T10:56:50.480Z,95.62
2023-01-15T10:57:56.401Z,95.62
2023-01-15T10:58:51.795Z,95.62
2023-01-15T10:59:50.969Z,95.62
2023-01-15T11:00:51.119Z,95.62
2023-01-15T11:01:51.333Z,95.62
2023-01-15T11:02:51.484Z,90.00
2023-01-15T11:03:51.620Z,90.00
2023-01-15T11:04:51.945Z,84.38
2023-01-15T11:05:51.997Z,84.38
2023-01-15T11:06:52.154Z,84.38
2023-01-15T11:08:39.291Z,84.38
2023-01-15T11:09:11.236Z,78.75
2023-01-15T11:09:53.696Z,78.75
2023-01-15T11:10:52.823Z,73.12
2023-01-15T11:11:52.972Z,73.12
2023-01-15T11:12:53.197Z,67.50
2023-01-15T11:13:53.325Z,67.50
2023-01-15T11:14:53.486Z,67.50
2023-01-15T11:15:53.725Z,67.50
2023-01-15T11:16:53.834Z,61.88
2023-01-15T11:17:53.994Z,61.88
2023-01-15T11:18:54.189Z,61.88
2023-01-15T11:19:54.348Z,61.88
2023-01-15T11:20:54.512Z,61.88
2023-01-15T11:21:54.655Z,61.88
2023-01-15T11:22:54.841Z,67.50
2023-01-15T11:23:54.997Z,61.88
2023-01-15T11:24:55.176Z,61.88
2023-01-15T11:25:55.333Z,61.88
2023-01-15T11:26:55.497Z,61.88
2023-01-15T11:27:55.635Z,56.25
2023-01-15T11:28:55.828Z,56.25
2023-01-15T11:29:55.997Z,56.25
2023-01-15T11:30:56.195Z,56.25
2023-01-15T11:31:56.299Z,56.25
2023-01-15T11:32:56.470Z,56.25
2023-01-15T11:33:56.624Z,56.25
2023-01-15T11:34:56.831Z,56.25
2023-01-15T11:35:56.991Z,56.25
2023-01-15T11:36:57.172Z,61.88
2023-01-15T11:37:57.340Z,61.88
2023-01-15T11:38:57.513Z,61.88
2023-01-15T11:39:57.671Z,56.25
2023-01-15T11:40:57.915Z,56.25
2023-01-15T11:41:58.056Z,56.25
2023-01-15T11:42:58.227Z,56.25
2023-01-15T11:43:58.380Z,50.62
2023-01-15T11:44:58.594Z,50.62
2023-01-15T11:45:58.793Z,50.62
2023-01-15T11:46:58.911Z,50.62
2023-01-15T11:47:59.078Z,50.62
2023-01-15T11:48:59.242Z,50.62
2023-01-15T11:49:59.404Z,50.62
2023-01-15T11:50:59.613Z,50.62
2023-01-15T11:51:59.793Z,50.62
2023-01-15T11:52:59.989Z,50.62
2023-01-15T11:54:00.159Z,50.62
2023-01-15T11:55:00.306Z,50.62
2023-01-15T11:56:00.522Z,50.62
2023-01-15T11:57:00.712Z,56.25
2023-01-15T11:58:00.861Z,50.62
2023-01-15T11:59:01.047Z,50.62
2023-01-15T12:00:01.240Z,56.25
2023-01-15T12:01:01.445Z,61.88
2023-01-15T12:02:01.564Z,56.25
2023-01-15T12:03:01.726Z,56.25
2023-01-15T12:04:02.095Z,61.88
2023-01-15T12:05:02.106Z,61.88
2023-01-15T12:06:02.263Z,61.88
2023-01-15T12:07:02.437Z,61.88
2023-01-15T12:08:02.619Z,61.88
2023-01-15T12:09:02.795Z,61.88
2023-01-15T12:10:02.978Z,61.88
2023-01-15T12:11:17.185Z,67.50
2023-01-15T12:12:04.311Z,67.50
2023-01-15T12:13:03.461Z,73.12
2023-01-15T12:14:03.620Z,73.12
2023-01-15T12:15:03.800Z,78.75
2023-01-15T12:16:04.015Z,78.75
2023-01-15T12:17:04.189Z,84.38
2023-01-15T12:18:04.335Z,84.38
2023-01-15T12:19:04.494Z,84.38
2023-01-15T12:20:04.633Z,84.38
2023-01-15T12:21:04.821Z,90.00
2023-01-15T12:22:05.002Z,90.00
2023-01-15T12:23:06.118Z,90.00
2023-01-15T12:24:05.363Z,90.00
2023-01-15T12:25:05.538Z,90.00
2023-01-15T12:26:05.723Z,90.00
2023-01-15T12:27:07.261Z,129.38
2023-01-15T12:28:06.072Z,95.62
2023-01-15T12:29:06.264Z,95.62
2023-01-15T12:30:06.445Z,106.88
2023-01-15T12:31:06.608Z,112.50
2023-01-15T12:32:06.782Z,129.38
2023-01-15T12:33:06.943Z,157.50
2023-01-15T12:34:07.112Z,264.38
2023-01-15T12:35:07.285Z,264.38
2023-01-15T12:36:07.468Z,157.50
2023-01-15T12:37:07.673Z,157.50
2023-01-15T12:38:09.016Z,163.12
2023-01-15T12:39:07.963Z,151.88
2023-01-15T12:40:08.147Z,135.00
2023-01-15T12:41:08.327Z,118.12
2023-01-15T12:42:08.483Z,106.88
2023-01-15T12:43:08.657Z,90.00
2023-01-15T12:44:08.825Z,90.00
2023-01-15T12:45:09.012Z,78.75
2023-01-15T12:46:09.148Z,67.50
2023-01-15T12:47:09.320Z,61.88
2023-01-15T12:48:09.478Z,61.88
2023-01-15T12:49:09.701Z,61.88
2023-01-15T12:50:09.927Z,56.25
2023-01-15T12:51:09.996Z,56.25
2023-01-15T12:52:10.184Z,61.88
2023-01-15T12:53:10.345Z,61.88
2023-01-15T12:54:10.522Z,61.88
2023-01-15T12:55:10.710Z,61.88
2023-01-15T12:56:10.853Z,61.88
2023-01-15T12:57:11.063Z,61.88
2023-01-15T12:58:11.232Z,67.50
2023-01-15T12:59:11.414Z,73.12
2023-01-15T13:00:11.585Z,78.75
2023-01-15T13:01:11.864Z,84.38
2023-01-15T13:02:11.999Z,95.62
2023-01-15T13:03:12.126Z,106.88
2023-01-15T13:04:12.283Z,135.00
2023-01-15T13:05:12.451Z,135.00
2023-01-15T13:06:12.613Z,140.62
2023-01-15T13:07:12.799Z,168.75
2023-01-15T13:08:12.961Z,196.88
2023-01-15T13:09:13.147Z,247.50
2023-01-15T13:10:13.304Z,309.38
2023-01-15T13:11:13.465Z,354.38
2023-01-15T13:12:13.652Z,511.88